Pocatello Regional Airport
KPIH : rendu visible

Aérodrome :











RETROUVEZ-NOUS SUR...

 
LOGIN :

S'inscrire | Disclaimer

   EN    FR    IT 

 









Légende :    VFR   VFR Marginal   IFR   IFR Intensif   IFR Très Intensif
Visi : 
Plafond : 
>= 8 km
>= 3000ft
5 à 8 km
1000 à 3000 ft
1500m à 5 km
500 à 1000 ft
800 à 1500m
200 à 500 ft
< 800m
< 200 ft
Symboles :   Orages  Brouillard  Fortes neiges  Fortes précipitations  Vent > 20 kt






- Altitude de l'aérodrome : 4452 ft
- Code IATA : PIH


KPIH - Pocatello Regional

DERNIER METAR :
  • 170953Z AUTO 21007KT 10SM CLR 01/M05 A3034 RMK AO2 SLP278 T00111050

METARs EXPIRÉS :
  • 170853Z AUTO 21007KT 10SM CLR 02/M04 A3035 RMK AO2 SLP279 T00171044 53002
  • 170753Z AUTO 20007KT 10SM CLR 02/M04 A3035 RMK AO2 SLP277 T00221044

TAF KPIH
Valide du 17 à 06h jusqu'au 18 à 06h UTC


170520Z 1706/1806 20007KT P6SM BKN100
FM171200 21006KT P6SM BKN070
FM171800 22010KT P6SM BKN080
FM180200 20009KT P6SM BKN050



MET'MAP, la Météo Aéronautique d'un coup d'oeil ! - Copyright ORBIFLY Décembre 2007 - Disclaimer

ORBIFLY MET'MAP TEAM :

Programmation & Développement : Alexandra Zaïnal
Conception & Développement : Baudouin d'Aumeries
Co-Programmation & Développement : Marc-Olivier Méhu
Soutien technique & logistique : Manuel Goepfert

Contact : metmap@orbifly.com




SOURCES & CREDITS :

   NOAA       Earth
Advisory